Time;durP1;ratioP1;P1;durP2;ratioP2;P2;SDS_P1;SDS_P2;PMS_P1;PMS_P2;Temp;Humidity;BMP_temperature;BMP_pressure;BME280_temperature;BME280_humidity;BME280_pressure;Samples;Min_cycle;Max_cycle;Signal;HPM_P1;HPM_P2
2023/03/21 06:46:58;;;;;;;;;4.75;3.00;;;;;;;;5050462;28;49925;-70
2023/03/21 06:49:24;;;;;;;;;5.75;5.50;;;;;;;;5050141;28;50011;-70
2023/03/21 06:51:50;;;;;;;;;4.75;4.25;;;;;;;;5051526;28;50055;-69
2023/03/21 06:54:18;;;;;;;;;4.00;4.00;;;;;;;;5051571;28;49866;-70
2023/03/21 06:56:46;;;;;;;;;9.50;6.50;;;;;;;;5048876;28;50084;-71
2023/03/21 06:59:11;;;;;;;;;8.25;6.50;;;;;;;;5049703;28;49752;-70
2023/03/21 07:01:37;;;;;;;;;8.00;8.00;;;;;;;;5050704;28;50917;-71
2023/03/21 07:04:03;;;;;;;;;4.75;4.75;;;;;;;;5050437;28;49696;-72
2023/03/21 07:06:29;;;;;;;;;4.25;2.75;;;;;;;;5051217;28;49825;-68
2023/03/21 07:08:54;;;;;;;;;8.25;5.25;;;;;;;;5051307;28;49978;-67
2023/03/21 07:11:20;;;;;;;;;7.75;6.00;;;;;;;;5050007;28;50808;-69
2023/03/21 07:13:45;;;;;;;;;6.25;5.00;;;;;;;;5051179;28;49619;-66
2023/03/21 07:16:10;;;;;;;;;10.75;6.00;;;;;;;;5051641;28;49824;-68
2023/03/21 07:18:36;;;;;;;;;8.00;6.50;;;;;;;;5051813;28;49747;-72
2023/03/21 07:21:01;;;;;;;;;4.25;4.25;;;;;;;;5050363;28;51258;-72
2023/03/21 07:23:27;;;;;;;;;7.00;6.75;;;;;;;;5051499;28;49862;-68
2023/03/21 07:25:52;;;;;;;;;7.00;7.00;;;;;;;;5051153;28;49896;-70
2023/03/21 07:28:17;;;;;;;;;11.25;6.50;;;;;;;;5051168;28;50413;-68
2023/03/21 07:30:43;;;;;;;;;9.25;6.00;;;;;;;;5051226;28;49848;-70
2023/03/21 07:33:09;;;;;;;;;6.00;6.00;;;;;;;;5049894;28;49974;-72
2023/03/21 07:35:36;;;;;;;;;6.25;6.25;;;;;;;;5051218;28;49701;-70
2023/03/21 07:38:01;;;;;;;;;6.50;6.50;;;;;;;;5051479;28;50120;-70
2023/03/21 07:40:26;;;;;;;;;7.00;5.50;;;;;;;;5050936;28;50892;-69
2023/03/21 07:42:52;;;;;;;;;5.25;5.25;;;;;;;;5050532;28;49916;-70
2023/03/21 07:45:20;;;;;;;;;6.00;6.00;;;;;;;;5050981;28;49976;-70
2023/03/21 07:47:46;;;;;;;;;10.25;9.75;;;;;;;;5051039;28;49676;-71
2023/03/21 07:50:11;;;;;;;;;6.25;5.25;;;;;;;;5050902;28;49800;-72
2023/03/21 07:52:36;;;;;;;;;8.00;6.75;;;;;;;;5050738;28;50317;-70
2023/03/21 07:55:02;;;;;;;;;33.50;29.25;;;;;;;;5050837;28;49722;-70
2023/03/21 07:57:27;;;;;;;;;13.50;13.50;;;;;;;;5051172;28;49988;-70
2023/03/21 07:59:52;;;;;;;;;6.50;6.50;;;;;;;;5050406;28;50523;-70
2023/03/21 08:02:17;;;;;;;;;10.75;10.75;;;;;;;;5050653;28;49713;-69
2023/03/21 08:04:43;;;;;;;;;13.25;10.25;;;;;;;;5050540;28;50527;-68
2023/03/21 08:07:08;;;;;;;;;6.25;6.00;;;;;;;;5050965;28;50035;-71
2023/03/21 08:09:34;;;;;;;;;7.75;7.75;;;;;;;;5050474;28;50778;-72
2023/03/21 08:11:59;;;;;;;;;9.00;7.00;;;;;;;;5050800;28;49676;-75
2023/03/21 08:14:24;;;;;;;;;10.50;9.00;;;;;;;;5050579;28;49752;-71
2023/03/21 08:16:49;;;;;;;;;12.75;10.00;;;;;;;;5050803;28;49683;-71
2023/03/21 08:19:17;;;;;;;;;14.00;12.00;;;;;;;;5050234;28;52064;-70
2023/03/21 08:21:42;;;;;;;;;9.00;8.25;;;;;;;;5050478;28;49684;-73
2023/03/21 08:24:07;;;;;;;;;6.00;6.00;;;;;;;;5050592;28;49785;-72
2023/03/21 08:26:33;;;;;;;;;8.00;8.00;;;;;;;;5050691;28;50049;-75
2023/03/21 08:28:58;;;;;;;;;9.75;8.25;;;;;;;;5048798;28;52647;-69
2023/03/21 08:31:23;;;;;;;;;9.75;6.50;;;;;;;;5050290;28;49598;-73
2023/03/21 08:33:53;;;;;;;;;13.00;11.00;;;;;;;;5032010;28;49871;-71
2023/03/21 08:36:19;;;;;;;;;7.50;7.25;;;;;;;;5050288;28;49854;-69
2023/03/21 08:38:46;;;;;;;;;9.00;7.75;;;;;;;;5050027;28;50572;-73
2023/03/21 08:41:11;;;;;;;;;9.75;8.00;;;;;;;;5050229;28;49909;-70
2023/03/21 08:43:37;;;;;;;;;10.00;8.25;;;;;;;;5049655;28;49765;-73
2023/03/21 08:46:03;;;;;;;;;7.75;6.50;;;;;;;;5050370;28;49910;-69
2023/03/21 08:48:28;;;;;;;;;9.50;6.75;;;;;;;;5049936;28;51118;-71
2023/03/21 08:50:53;;;;;;;;;7.25;6.50;;;;;;;;5050048;28;49687;-70
2023/03/21 08:53:19;;;;;;;;;11.25;7.50;;;;;;;;5050097;28;49858;-69
2023/03/21 08:55:45;;;;;;;;;9.25;8.00;;;;;;;;5048752;28;49669;-69
2023/03/21 08:58:11;;;;;;;;;7.00;5.75;;;;;;;;5049697;28;52051;-69
2023/03/21 09:00:36;;;;;;;;;9.25;7.00;;;;;;;;5050052;28;49905;-72
2023/03/21 09:03:03;;;;;;;;;6.00;6.00;;;;;;;;5050134;28;49967;-72
2023/03/21 09:05:28;;;;;;;;;7.50;6.00;;;;;;;;5050284;28;49972;-70
2023/03/21 09:07:54;;;;;;;;;6.00;6.00;;;;;;;;5049996;28;50990;-74
2023/03/21 09:10:20;;;;;;;;;6.75;6.00;;;;;;;;5049834;28;49692;-69
2023/03/21 09:12:46;;;;;;;;;4.50;3.00;;;;;;;;5049824;28;49717;-68
2023/03/21 09:15:12;;;;;;;;;4.00;4.00;;;;;;;;5049565;28;49680;-72
2023/03/21 09:17:41;;;;;;;;;6.00;5.00;;;;;;;;5042940;28;50789;-69
2023/03/21 09:20:10;;;;;;;;;5.25;4.25;;;;;;;;5049983;28;49688;-69
2023/03/21 09:22:36;;;;;;;;;5.25;5.25;;;;;;;;5049773;28;49796;-71
2023/03/21 09:25:01;;;;;;;;;5.25;5.25;;;;;;;;5043405;28;49900;-69
2023/03/21 09:27:27;;;;;;;;;3.00;3.00;;;;;;;;5049381;28;50446;-72
2023/03/21 09:29:52;;;;;;;;;5.75;4.25;;;;;;;;5049489;28;49999;-76
2023/03/21 09:32:18;;;;;;;;;6.50;4.50;;;;;;;;5049626;28;50065;-73
2023/03/21 09:34:44;;;;;;;;;5.00;3.75;;;;;;;;5049610;28;50248;-72
2023/03/21 09:37:10;;;;;;;;;4.50;3.50;;;;;;;;5049388;28;49926;-74
2023/03/21 09:39:36;;;;;;;;;4.75;4.75;;;;;;;;5047216;28;50040;-75
2023/03/21 09:42:14;;;;;;;;;8.25;6.00;;;;;;;;5049867;28;49787;-72
2023/03/21 09:44:48;;;;;;;;;3.50;3.00;;;;;;;;5049392;28;50047;-70
2023/03/21 09:47:24;;;;;;;;;4.00;4.00;;;;;;;;5049384;28;50440;-72
2023/03/21 09:49:57;;;;;;;;;8.50;4.25;;;;;;;;5049302;28;49894;-71
2023/03/21 09:52:27;;;;;;;;;3.00;3.00;;;;;;;;5049339;28;49770;-73
2023/03/21 09:54:54;;;;;;;;;5.75;5.75;;;;;;;;5049389;28;49898;-70
2023/03/21 09:57:31;;;;;;;;;4.00;4.00;;;;;;;;5051673;28;49936;-70
2023/03/21 09:59:59;;;;;;;;;8.25;5.75;;;;;;;;5052643;28;50210;-75
2023/03/21 10:02:46;;;;;;;;;5.25;5.25;;;;;;;;5052808;28;49773;-69
2023/03/21 10:05:16;;;;;;;;;4.25;4.00;;;;;;;;5052701;28;49826;-72
2023/03/21 10:07:44;;;;;;;;;4.50;3.75;;;;;;;;5052329;28;49878;-75
2023/03/21 10:10:14;;;;;;;;;4.50;4.50;;;;;;;;5052432;28;49684;-69
2023/03/21 10:12:40;;;;;;;;;5.00;5.00;;;;;;;;5052371;28;49859;-75
2023/03/21 10:15:05;;;;;;;;;4.00;3.75;;;;;;;;5052857;28;50040;-69
2023/03/21 10:17:42;;;;;;;;;5.00;5.00;;;;;;;;5052372;28;49955;-69
2023/03/21 10:20:14;;;;;;;;;5.00;4.00;;;;;;;;5052440;28;49672;-69
2023/03/21 10:22:40;;;;;;;;;4.75;4.75;;;;;;;;5052496;28;49805;-73
2023/03/21 10:25:06;;;;;;;;;6.75;6.00;;;;;;;;5052409;28;49758;-70
2023/03/21 10:27:32;;;;;;;;;4.25;4.25;;;;;;;;5045567;28;49839;-70
2023/03/21 10:29:59;;;;;;;;;4.00;4.00;;;;;;;;5052161;28;49747;-69
2023/03/21 10:32:25;;;;;;;;;4.00;4.00;;;;;;;;5052101;28;49810;-69
2023/03/21 10:34:54;;;;;;;;;6.00;4.75;;;;;;;;5052320;28;49830;-69
2023/03/21 10:37:19;;;;;;;;;4.75;2.75;;;;;;;;5052150;28;50540;-69
2023/03/21 10:39:47;;;;;;;;;3.75;3.75;;;;;;;;5052225;28;49913;-69
2023/03/21 10:42:22;;;;;;;;;5.50;5.00;;;;;;;;5052103;28;49618;-69
2023/03/21 10:44:48;;;;;;;;;7.00;7.00;;;;;;;;5051822;28;49987;-70
2023/03/21 10:47:18;;;;;;;;;5.00;4.75;;;;;;;;5051774;28;49734;-69
2023/03/21 10:49:45;;;;;;;;;2.50;2.00;;;;;;;;5051851;28;49602;-75
2023/03/21 10:52:12;;;;;;;;;4.00;3.25;;;;;;;;5052069;28;49992;-71
2023/03/21 10:54:37;;;;;;;;;7.00;5.00;;;;;;;;5052026;28;49927;-69
2023/03/21 10:57:03;;;;;;;;;4.75;4.00;;;;;;;;5051596;28;49996;-69
2023/03/21 10:59:34;;;;;;;;;2.00;2.00;;;;;;;;5051787;28;50238;-72
2023/03/21 11:02:01;;;;;;;;;5.00;4.00;;;;;;;;5051978;28;49906;-70
2023/03/21 11:04:28;;;;;;;;;6.75;4.50;;;;;;;;5051885;28;49774;-73
2023/03/21 11:06:55;;;;;;;;;5.25;3.75;;;;;;;;5051257;28;49794;-70
2023/03/21 11:09:23;;;;;;;;;4.25;3.75;;;;;;;;5051454;28;50048;-69
2023/03/21 11:11:54;;;;;;;;;3.50;3.50;;;;;;;;5050136;28;49617;-70
2023/03/21 11:14:32;;;;;;;;;5.50;5.50;;;;;;;;5051668;28;49862;-72
2023/03/21 11:16:57;;;;;;;;;5.00;5.00;;;;;;;;5051328;28;49817;-72
2023/03/21 11:19:29;;;;;;;;;3.00;1.75;;;;;;;;5051495;28;49865;-73
2023/03/21 11:21:56;;;;;;;;;6.25;6.00;;;;;;;;5046007;28;49864;-68
2023/03/21 11:24:22;;;;;;;;;6.25;6.25;;;;;;;;5051424;28;49491;-74
2023/03/21 11:26:49;;;;;;;;;9.50;7.75;;;;;;;;5051114;28;49829;-70
2023/03/21 11:29:24;;;;;;;;;6.00;6.00;;;;;;;;5051383;28;49981;-70
2023/03/21 11:31:49;;;;;;;;;8.00;7.00;;;;;;;;5045844;28;49752;-72
2023/03/21 11:34:23;;;;;;;;;5.25;5.00;;;;;;;;5051305;28;50002;-70
2023/03/21 11:36:49;;;;;;;;;7.00;7.00;;;;;;;;5050970;28;49933;-70
2023/03/21 11:39:36;;;;;;;;;8.25;7.00;;;;;;;;5051048;28;49796;-72
2023/03/21 11:42:01;;;;;;;;;7.00;5.25;;;;;;;;5051012;28;49845;-69
2023/03/21 11:44:28;;;;;;;;;8.50;5.75;;;;;;;;5051091;28;49737;-69
2023/03/21 11:46:53;;;;;;;;;6.75;6.75;;;;;;;;5051166;28;51023;-72
2023/03/21 11:49:19;;;;;;;;;5.75;5.75;;;;;;;;5050825;28;50244;-72
2023/03/21 11:51:45;;;;;;;;;9.00;7.25;;;;;;;;5051100;28;49799;-72
2023/03/21 11:54:15;;;;;;;;;6.50;6.50;;;;;;;;5050971;28;49854;-73
2023/03/21 11:56:51;;;;;;;;;4.00;4.00;;;;;;;;5050886;28;50039;-73
2023/03/21 11:59:22;;;;;;;;;6.50;6.50;;;;;;;;5050628;28;49885;-69
2023/03/21 12:02:06;;;;;;;;;5.00;5.00;;;;;;;;5032249;28;49887;-73
2023/03/21 12:04:41;;;;;;;;;4.50;4.00;;;;;;;;5050931;28;49785;-74
2023/03/21 12:07:06;;;;;;;;;4.00;4.00;;;;;;;;5050639;28;50015;-71
2023/03/21 12:09:43;;;;;;;;;3.50;3.50;;;;;;;;5050744;28;49618;-69
2023/03/21 12:12:11;;;;;;;;;3.75;3.75;;;;;;;;5050750;28;49985;-76
2023/03/21 12:14:36;;;;;;;;;5.00;5.00;;;;;;;;5050437;28;49825;-75
2023/03/21 12:17:20;;;;;;;;;5.00;4.00;;;;;;;;5050546;28;49900;-75
2023/03/21 12:19:57;;;;;;;;;3.25;2.50;;;;;;;;5049720;28;49768;-72
2023/03/21 12:22:28;;;;;;;;;3.75;3.75;;;;;;;;5050573;28;49615;-76
2023/03/21 12:24:54;;;;;;;;;3.25;3.25;;;;;;;;5050586;28;49847;-70
2023/03/21 12:27:36;;;;;;;;;2.00;2.00;;;;;;;;5050393;28;50592;-72
2023/03/21 12:30:24;;;;;;;;;3.00;2.75;;;;;;;;5050283;28;49816;-68
2023/03/21 12:32:59;;;;;;;;;6.00;5.00;;;;;;;;5050292;28;49935;-69
2023/03/21 12:35:37;;;;;;;;;5.25;5.25;;;;;;;;5031898;28;49770;-69
2023/03/21 12:38:21;;;;;;;;;5.50;5.00;;;;;;;;5050143;28;49839;-69
2023/03/21 12:41:04;;;;;;;;;4.25;4.25;;;;;;;;5050098;28;49665;-71
2023/03/21 12:43:32;;;;;;;;;4.00;4.00;;;;;;;;5050188;28;49954;-70
2023/03/21 12:46:03;;;;;;;;;6.00;3.50;;;;;;;;5050285;28;49694;-73
2023/03/21 12:48:47;;;;;;;;;8.25;7.25;;;;;;;;5049800;28;50093;-70
2023/03/21 12:51:14;;;;;;;;;5.50;5.50;;;;;;;;5031267;28;49670;-69
2023/03/21 12:53:58;;;;;;;;;6.50;5.50;;;;;;;;5049978;28;49780;-72
2023/03/21 12:56:49;;;;;;;;;4.00;4.00;;;;;;;;5032135;28;49894;-76
2023/03/21 12:59:53;;;;;;;;;6.75;6.75;;;;;;;;5025323;28;50755;-70
2023/03/21 13:02:26;;;;;;;;;5.25;4.75;;;;;;;;4986737;28;50006;-74
2023/03/21 13:04:56;;;;;;;;;5.50;5.50;;;;;;;;4976248;28;50047;-73
2023/03/21 13:07:24;;;;;;;;;6.50;6.50;;;;;;;;5020875;28;49828;-68
2023/03/21 13:09:50;;;;;;;;;5.25;5.25;;;;;;;;5049368;28;49863;-70
2023/03/21 13:12:24;;;;;;;;;8.50;6.00;;;;;;;;5049701;28;49724;-69
2023/03/21 13:14:55;;;;;;;;;4.75;4.75;;;;;;;;5049676;28;49855;-70
2023/03/21 13:17:31;;;;;;;;;5.75;5.75;;;;;;;;5050338;28;49996;-77
2023/03/21 13:20:22;;;;;;;;;3.75;3.75;;;;;;;;5049888;28;50590;-72
2023/03/21 13:22:48;;;;;;;;;7.00;6.00;;;;;;;;5046124;28;50036;-78
2023/03/21 13:25:16;;;;;;;;;6.50;6.50;;;;;;;;5049654;28;49552;-67
2023/03/21 13:27:42;;;;;;;;;5.25;4.50;;;;;;;;5049579;28;50085;-67
2023/03/21 13:30:14;;;;;;;;;8.00;5.00;;;;;;;;5048929;28;51624;-68
2023/03/21 13:32:39;;;;;;;;;4.75;4.00;;;;;;;;5053419;28;49976;-68
2023/03/21 13:35:15;;;;;;;;;4.75;3.50;;;;;;;;5053188;28;49638;-75
2023/03/21 13:37:42;;;;;;;;;4.50;3.25;;;;;;;;5053303;28;50403;-78
2023/03/21 13:40:19;;;;;;;;;5.00;3.75;;;;;;;;5052782;28;49819;-76
2023/03/21 13:42:49;;;;;;;;;9.00;6.00;;;;;;;;5051163;28;49898;-76
2023/03/21 13:45:23;;;;;;;;;3.00;3.00;;;;;;;;5052528;28;49657;-69
2023/03/21 13:47:51;;;;;;;;;1.25;1.25;;;;;;;;5051542;28;50179;-72
2023/03/21 13:50:16;;;;;;;;;6.00;4.50;;;;;;;;5052606;28;50018;-74
2023/03/21 13:52:42;;;;;;;;;5.25;4.00;;;;;;;;5053155;28;49830;-75
2023/03/21 13:55:18;;;;;;;;;5.00;3.25;;;;;;;;5052947;28;49604;-76
2023/03/21 13:57:47;;;;;;;;;8.00;5.00;;;;;;;;5052640;28;50059;-72
2023/03/21 14:00:16;;;;;;;;;3.25;2.50;;;;;;;;5052514;28;50714;-68
2023/03/21 14:02:57;;;;;;;;;4.00;3.00;;;;;;;;5051187;28;49818;-69
2023/03/21 14:05:23;;;;;;;;;3.50;3.50;;;;;;;;5052628;28;49811;-72
2023/03/21 14:07:51;;;;;;;;;4.25;3.00;;;;;;;;5052871;28;49587;-71
2023/03/21 14:10:37;;;;;;;;;3.00;3.00;;;;;;;;5052409;28;49870;-72
2023/03/21 14:13:04;;;;;;;;;2.25;2.25;;;;;;;;5051726;28;49672;-71
2023/03/21 14:15:37;;;;;;;;;3.00;3.00;;;;;;;;5052613;28;49819;-71
2023/03/21 14:18:02;;;;;;;;;3.00;2.00;;;;;;;;5052639;28;49696;-71
2023/03/21 14:20:32;;;;;;;;;2.75;1.00;;;;;;;;5052278;28;49804;-67
2023/03/21 14:22:57;;;;;;;;;1.75;1.75;;;;;;;;5052492;28;49874;-75
2023/03/21 14:25:24;;;;;;;;;1.50;1.25;;;;;;;;5052345;28;49805;-71
2023/03/21 14:27:54;;;;;;;;;1.00;1.00;;;;;;;;5052291;28;50161;-71
2023/03/21 14:30:34;;;;;;;;;1.25;1.25;;;;;;;;5052172;28;49842;-70
2023/03/21 14:33:03;;;;;;;;;1.00;1.00;;;;;;;;5052291;28;49777;-73
2023/03/21 14:35:30;;;;;;;;;2.50;1.50;;;;;;;;5052384;28;49944;-72
2023/03/21 14:37:58;;;;;;;;;2.50;1.75;;;;;;;;5052145;28;49632;-72
2023/03/21 14:40:25;;;;;;;;;2.00;2.00;;;;;;;;5051608;28;50664;-77
2023/03/21 14:42:51;;;;;;;;;2.00;1.00;;;;;;;;5051340;28;49827;-70
2023/03/21 14:45:21;;;;;;;;;1.50;1.50;;;;;;;;5052062;28;49780;-72
2023/03/21 14:47:57;;;;;;;;;0.00;0.00;;;;;;;;5052302;28;49790;-77
2023/03/21 14:50:26;;;;;;;;;1.00;1.00;;;;;;;;5051958;28;50600;-69
2023/03/21 14:52:52;;;;;;;;;0.00;0.00;;;;;;;;5052077;28;49729;-77
2023/03/21 14:55:18;;;;;;;;;1.00;1.00;;;;;;;;5051859;28;49828;-69
2023/03/21 14:57:43;;;;;;;;;1.75;1.75;;;;;;;;5051744;28;50133;-76
2023/03/21 15:00:21;;;;;;;;;0.50;0.50;;;;;;;;5051561;28;51053;-70
2023/03/21 15:02:47;;;;;;;;;0.50;0.50;;;;;;;;5051741;28;50081;-68
2023/03/21 15:05:32;;;;;;;;;1.00;1.00;;;;;;;;5051775;28;49795;-77
2023/03/21 15:08:06;;;;;;;;;0.00;0.00;;;;;;;;5051896;28;49721;-76
2023/03/21 15:10:31;;;;;;;;;1.75;0.00;;;;;;;;5051509;28;49711;-76
2023/03/21 15:12:57;;;;;;;;;0.00;0.00;;;;;;;;5051128;28;49766;-76
2023/03/21 15:15:24;;;;;;;;;1.25;1.25;;;;;;;;5051466;28;49658;-74
2023/03/21 15:17:51;;;;;;;;;1.25;0.25;;;;;;;;5051687;28;49900;-80
2023/03/21 15:20:17;;;;;;;;;0.00;0.00;;;;;;;;5051202;28;49707;-69
2023/03/21 15:22:49;;;;;;;;;1.00;1.00;;;;;;;;5051438;28;50031;-70
2023/03/21 15:25:18;;;;;;;;;0.00;0.00;;;;;;;;5051654;28;50117;-74
2023/03/21 15:27:43;;;;;;;;;0.25;0.25;;;;;;;;5051061;28;50238;-65
2023/03/21 15:30:18;;;;;;;;;0.00;0.00;;;;;;;;5051023;28;50764;-68
2023/03/21 15:32:43;;;;;;;;;0.00;0.00;;;;;;;;5051304;28;49611;-75
2023/03/21 15:35:14;;;;;;;;;2.00;0.50;;;;;;;;5051119;28;49785;-76
2023/03/21 15:37:40;;;;;;;;;2.25;1.00;;;;;;;;5051196;28;49882;-71
2023/03/21 15:40:08;;;;;;;;;1.00;1.00;;;;;;;;5050972;28;50696;-74
2023/03/21 15:42:37;;;;;;;;;2.00;2.00;;;;;;;;5049410;28;49771;-73
2023/03/21 15:45:12;;;;;;;;;1.00;1.00;;;;;;;;5051046;28;50194;-69
2023/03/21 15:47:38;;;;;;;;;1.25;1.00;;;;;;;;5049415;28;49846;-77
2023/03/21 15:50:16;;;;;;;;;1.75;1.00;;;;;;;;5050697;28;49779;-77
2023/03/21 15:52:41;;;;;;;;;1.00;1.00;;;;;;;;5050708;28;49689;-71
2023/03/21 15:55:16;;;;;;;;;1.00;1.00;;;;;;;;5049740;28;49651;-69
2023/03/21 15:57:45;;;;;;;;;2.25;2.25;;;;;;;;5050882;28;49878;-68
2023/03/21 16:00:18;;;;;;;;;2.25;2.00;;;;;;;;5050872;28;49910;-76
2023/03/21 16:02:44;;;;;;;;;2.00;2.00;;;;;;;;5050760;28;49669;-69
2023/03/21 16:05:19;;;;;;;;;2.00;2.00;;;;;;;;5049309;28;49822;-67
2023/03/21 16:07:45;;;;;;;;;2.75;2.75;;;;;;;;5050943;28;49808;-71
2023/03/21 16:10:22;;;;;;;;;2.00;2.00;;;;;;;;5050346;28;49757;-71
2023/03/21 16:12:47;;;;;;;;;3.50;3.50;;;;;;;;5050292;28;50090;-66
2023/03/21 16:15:13;;;;;;;;;3.50;2.50;;;;;;;;5032046;28;49864;-67
2023/03/21 16:17:38;;;;;;;;;2.75;2.00;;;;;;;;5050976;28;49886;-67
2023/03/21 16:20:24;;;;;;;;;1.25;1.25;;;;;;;;5032205;28;51384;-71
2023/03/21 16:22:49;;;;;;;;;2.00;2.00;;;;;;;;5050022;28;49964;-67
2023/03/21 16:25:15;;;;;;;;;2.00;2.00;;;;;;;;5050340;28;49884;-67
2023/03/21 16:27:40;;;;;;;;;2.50;2.50;;;;;;;;5050222;28;49712;-67
2023/03/21 16:30:06;;;;;;;;;3.00;3.00;;;;;;;;5050204;28;51018;-78
2023/03/21 16:32:33;;;;;;;;;3.00;1.75;;;;;;;;5050381;28;49777;-68
2023/03/21 16:34:58;;;;;;;;;1.50;1.50;;;;;;;;5050438;28;49816;-69
2023/03/21 16:37:23;;;;;;;;;2.00;2.00;;;;;;;;5032561;28;49863;-72
2023/03/21 16:39:48;;;;;;;;;3.75;3.50;;;;;;;;5048942;28;51419;-76
2023/03/21 16:42:13;;;;;;;;;6.25;5.00;;;;;;;;5050037;28;50079;-69
2023/03/21 16:44:39;;;;;;;;;6.50;4.75;;;;;;;;5049984;28;49748;-67
2023/03/21 16:47:12;;;;;;;;;3.50;3.50;;;;;;;;5050477;28;49692;-69
2023/03/21 16:49:37;;;;;;;;;3.75;3.75;;;;;;;;5049939;28;50675;-68
2023/03/21 16:52:02;;;;;;;;;3.00;3.00;;;;;;;;5050009;28;49589;-68
2023/03/21 16:54:27;;;;;;;;;4.25;3.75;;;;;;;;5050022;28;49662;-77
2023/03/21 16:56:54;;;;;;;;;3.00;3.00;;;;;;;;5048908;28;50028;-78
2023/03/21 16:59:19;;;;;;;;;4.00;3.50;;;;;;;;5049702;28;49852;-68
2023/03/21 17:01:46;;;;;;;;;3.00;3.00;;;;;;;;5050079;28;49932;-68
2023/03/21 17:04:12;;;;;;;;;4.25;4.25;;;;;;;;5050086;28;49813;-67
2023/03/21 17:06:43;;;;;;;;;3.00;3.00;;;;;;;;5049921;28;49669;-67
2023/03/21 17:09:08;;;;;;;;;6.25;6.00;;;;;;;;5049841;28;50617;-74
2023/03/21 17:11:36;;;;;;;;;4.50;2.75;;;;;;;;5049917;28;49783;-71
2023/03/21 17:14:01;;;;;;;;;3.00;3.00;;;;;;;;5049722;28;49877;-68
2023/03/21 17:16:27;;;;;;;;;9.75;4.75;;;;;;;;5050029;28;49811;-68
2023/03/21 17:18:52;;;;;;;;;4.00;4.00;;;;;;;;5030973;28;52452;-79
2023/03/21 17:21:22;;;;;;;;;3.75;3.75;;;;;;;;5049835;28;49908;-77
2023/03/21 17:23:49;;;;;;;;;6.25;5.25;;;;;;;;5049807;28;49946;-68
2023/03/21 17:26:17;;;;;;;;;5.00;4.00;;;;;;;;5049851;28;49922;-71
2023/03/21 17:28:42;;;;;;;;;6.00;5.00;;;;;;;;5049291;28;50928;-79
2023/03/21 17:31:11;;;;;;;;;5.25;5.25;;;;;;;;5049664;28;49710;-68
2023/03/21 17:33:36;;;;;;;;;8.00;6.00;;;;;;;;5049801;28;49610;-72
2023/03/21 17:36:02;;;;;;;;;6.50;6.50;;;;;;;;5049629;28;49885;-77
2023/03/21 17:38:27;;;;;;;;;7.75;7.25;;;;;;;;5049302;28;52187;-71
2023/03/21 17:40:52;;;;;;;;;4.75;4.75;;;;;;;;5049418;28;49781;-73
2023/03/21 17:43:18;;;;;;;;;7.25;6.75;;;;;;;;5049266;28;50112;-69
2023/03/21 17:45:44;;;;;;;;;5.75;5.75;;;;;;;;5049503;28;49693;-77
2023/03/21 17:48:09;;;;;;;;;5.50;4.50;;;;;;;;5048012;28;51023;-78
2023/03/21 17:50:35;;;;;;;;;4.50;4.50;;;;;;;;5049355;28;49829;-70
2023/03/21 17:53:01;;;;;;;;;6.25;4.25;;;;;;;;5049374;28;49735;-77
2023/03/21 17:55:26;;;;;;;;;8.50;6.50;;;;;;;;5049415;28;49823;-69
2023/03/21 17:57:52;;;;;;;;;6.00;5.75;;;;;;;;5047623;28;51119;-72
2023/03/21 18:00:21;;;;;;;;;8.25;6.00;;;;;;;;5049250;28;49888;-70
2023/03/21 18:02:47;;;;;;;;;7.75;5.00;;;;;;;;5049405;28;49761;-72
2023/03/21 18:05:12;;;;;;;;;6.25;6.25;;;;;;;;5049364;28;49930;-73
2023/03/21 18:07:40;;;;;;;;;8.25;6.50;;;;;;;;5049005;28;49758;-70
2023/03/21 18:10:06;;;;;;;;;8.50;7.25;;;;;;;;5048931;28;49772;-80
2023/03/21 18:12:31;;;;;;;;;8.75;6.00;;;;;;;;5049106;28;49952;-76
2023/03/21 18:14:56;;;;;;;;;9.25;8.25;;;;;;;;5049248;28;49734;-70
2023/03/21 18:17:21;;;;;;;;;5.25;5.25;;;;;;;;5050000;28;49869;-79
2023/03/21 18:19:46;;;;;;;;;7.50;6.75;;;;;;;;5052325;28;49784;-76
2023/03/21 18:22:12;;;;;;;;;8.50;6.50;;;;;;;;5051258;28;50033;-73
2023/03/21 18:24:37;;;;;;;;;7.75;7.75;;;;;;;;5052444;28;49828;-70
2023/03/21 18:27:03;;;;;;;;;9.75;8.50;;;;;;;;5051769;28;50692;-76
2023/03/21 18:29:29;;;;;;;;;12.75;11.00;;;;;;;;5052229;28;49857;-72
2023/03/21 18:31:59;;;;;;;;;9.00;9.00;;;;;;;;5051986;28;49744;-72
2023/03/21 18:34:24;;;;;;;;;13.50;10.75;;;;;;;;5050752;28;49940;-75
2023/03/21 18:36:50;;;;;;;;;8.50;7.75;;;;;;;;5051818;28;50746;-78
2023/03/21 18:39:16;;;;;;;;;12.75;9.00;;;;;;;;5052025;28;49970;-76
2023/03/21 18:41:41;;;;;;;;;9.25;9.25;;;;;;;;5052228;28;49882;-78
2023/03/21 18:44:06;;;;;;;;;10.00;8.75;;;;;;;;5052064;28;49871;-73
2023/03/21 18:46:32;;;;;;;;;9.50;8.25;;;;;;;;5051895;28;50588;-77
2023/03/21 18:48:57;;;;;;;;;14.00;10.25;;;;;;;;5049841;28;49826;-69
2023/03/21 18:51:22;;;;;;;;;10.00;8.25;;;;;;;;5051660;28;49635;-79
2023/03/21 18:53:48;;;;;;;;;9.25;9.00;;;;;;;;5051681;28;49851;-69
2023/03/21 18:56:13;;;;;;;;;9.00;6.00;;;;;;;;5051576;28;49789;-69
2023/03/21 18:58:39;;;;;;;;;12.50;9.00;;;;;;;;5051305;28;50143;-75
2023/03/21 19:01:05;;;;;;;;;7.00;7.00;;;;;;;;5051759;28;49868;-69
2023/03/21 19:03:30;;;;;;;;;9.25;7.75;;;;;;;;5051611;28;49641;-69
2023/03/21 19:05:59;;;;;;;;;14.50;10.75;;;;;;;;5050857;28;50599;-74
2023/03/21 19:08:24;;;;;;;;;11.75;9.00;;;;;;;;5051121;28;49848;-73
2023/03/21 19:10:50;;;;;;;;;9.25;8.75;;;;;;;;5051748;28;49820;-70
2023/03/21 19:13:16;;;;;;;;;13.50;11.75;;;;;;;;5050902;28;50153;-71
2023/03/21 19:15:42;;;;;;;;;14.50;14.50;;;;;;;;5049856;28;50720;-69
2023/03/21 19:18:09;;;;;;;;;16.50;13.75;;;;;;;;5051504;28;49985;-74
2023/03/21 19:20:34;;;;;;;;;15.00;12.50;;;;;;;;5051464;28;49576;-76
2023/03/21 19:23:00;;;;;;;;;17.75;14.50;;;;;;;;5051369;28;49777;-74
2023/03/21 19:25:25;;;;;;;;;16.25;15.00;;;;;;;;5049134;28;52669;-76
2023/03/21 19:27:50;;;;;;;;;14.75;11.00;;;;;;;;5052371;28;49557;-88
2023/03/21 19:30:16;;;;;;;;;12.75;12.75;;;;;;;;5045180;28;49953;-81
2023/03/21 19:32:41;;;;;;;;;16.50;16.00;;;;;;;;5052436;28;49927;-75
2023/03/21 19:35:07;;;;;;;;;14.00;14.00;;;;;;;;5049943;28;49981;-70
2023/03/21 19:37:34;;;;;;;;;11.75;9.00;;;;;;;;5050955;28;49701;-74
2023/03/21 19:40:00;;;;;;;;;13.25;13.00;;;;;;;;5050332;28;49854;-74
2023/03/21 19:42:25;;;;;;;;;13.50;10.25;;;;;;;;5051046;28;49882;-74
2023/03/21 19:44:50;;;;;;;;;13.50;13.00;;;;;;;;5050722;28;51126;-71
2023/03/21 19:47:15;;;;;;;;;14.50;12.50;;;;;;;;5051353;28;49925;-73
2023/03/21 19:49:41;;;;;;;;;14.25;9.25;;;;;;;;5050956;28;49798;-65
2023/03/21 19:52:06;;;;;;;;;12.25;10.75;;;;;;;;5050994;28;49530;-81
2023/03/21 19:54:35;;;;;;;;;14.50;12.00;;;;;;;;5050887;28;49638;-69
2023/03/21 19:57:01;;;;;;;;;10.25;9.50;;;;;;;;5050845;28;49780;-74
2023/03/21 19:59:26;;;;;;;;;11.00;11.00;;;;;;;;5050987;28;49867;-74
2023/03/21 20:01:51;;;;;;;;;10.50;9.00;;;;;;;;5051174;28;49562;-71
2023/03/21 20:04:17;;;;;;;;;13.50;13.50;;;;;;;;5050115;28;49904;-67
2023/03/21 20:06:43;;;;;;;;;13.50;12.25;;;;;;;;5050648;28;49802;-68
2023/03/21 20:09:08;;;;;;;;;12.50;11.00;;;;;;;;5050510;28;49747;-68
2023/03/21 20:11:33;;;;;;;;;14.50;13.00;;;;;;;;5051064;28;49803;-73
2023/03/21 20:14:00;;;;;;;;;8.00;7.75;;;;;;;;5050650;28;49790;-72
2023/03/21 20:16:26;;;;;;;;;13.00;11.25;;;;;;;;5054213;28;49876;-77
2023/03/21 20:18:51;;;;;;;;;13.25;10.75;;;;;;;;5048650;28;49831;-74
2023/03/21 20:21:17;;;;;;;;;8.75;8.75;;;;;;;;5051066;28;49954;-72
2023/03/21 20:23:42;;;;;;;;;7.75;7.75;;;;;;;;5050730;28;50594;-71
2023/03/21 20:26:09;;;;;;;;;9.25;8.75;;;;;;;;5044405;28;49873;-72
2023/03/21 20:28:35;;;;;;;;;13.00;11.50;;;;;;;;5050307;28;49821;-74
2023/03/21 20:31:00;;;;;;;;;11.50;11.50;;;;;;;;5050484;28;50000;-76
2023/03/21 20:33:26;;;;;;;;;10.75;9.00;;;;;;;;5050388;28;49834;-82
2023/03/21 20:35:57;;;;;;;;;12.25;11.75;;;;;;;;5050267;28;49827;-78
2023/03/21 20:38:23;;;;;;;;;8.25;8.25;;;;;;;;5049860;28;50041;-75
2023/03/21 20:40:49;;;;;;;;;10.75;10.25;;;;;;;;5047823;28;49699;-75
2023/03/21 20:43:14;;;;;;;;;10.00;10.00;;;;;;;;5047866;28;51740;-80
2023/03/21 20:45:39;;;;;;;;;10.50;8.75;;;;;;;;5049006;28;49802;-82
2023/03/21 20:48:04;;;;;;;;;6.50;6.50;;;;;;;;5031086;28;49583;-72
2023/03/21 20:50:31;;;;;;;;;7.00;7.00;;;;;;;;5049898;28;49752;-71
2023/03/21 20:52:57;;;;;;;;;9.00;7.00;;;;;;;;5050120;28;49885;-72
2023/03/21 20:55:22;;;;;;;;;3.00;3.00;;;;;;;;5050063;28;49752;-76
2023/03/21 20:57:47;;;;;;;;;7.00;5.75;;;;;;;;5050564;28;50096;-77
2023/03/21 21:00:16;;;;;;;;;12.00;10.75;;;;;;;;5050469;28;49575;-76
2023/03/21 21:02:46;;;;;;;;;6.50;6.00;;;;;;;;5049979;28;50492;-74
2023/03/21 21:05:12;;;;;;;;;8.00;7.00;;;;;;;;5050070;28;49622;-69
2023/03/21 21:07:39;;;;;;;;;6.00;6.00;;;;;;;;5046916;28;50725;-73
2023/03/21 21:10:08;;;;;;;;;7.50;6.00;;;;;;;;5047752;28;49768;-72
2023/03/21 21:12:34;;;;;;;;;7.75;7.75;;;;;;;;5048932;28;50764;-70
2023/03/21 21:14:59;;;;;;;;;10.25;7.00;;;;;;;;5049861;28;49930;-70
2023/03/21 21:17:24;;;;;;;;;10.50;9.25;;;;;;;;5049744;28;49701;-70
2023/03/21 21:19:49;;;;;;;;;8.25;6.75;;;;;;;;5050161;28;49939;-69
2023/03/21 21:22:15;;;;;;;;;6.50;6.00;;;;;;;;5049537;28;50870;-71
2023/03/21 21:24:40;;;;;;;;;6.75;6.75;;;;;;;;5049654;28;49684;-71
2023/03/21 21:27:07;;;;;;;;;9.25;9.25;;;;;;;;5049313;28;49739;-70
2023/03/21 21:29:32;;;;;;;;;7.25;6.25;;;;;;;;5048346;28;50151;-70